sensor_id;sensor_type;location;lat;lon;timestamp;temperature;humidity
44509;DHT22;30214;52.246;14.408;2024-01-15T00:00:45;1.10;99.90
44509;DHT22;30214;52.246;14.408;2024-01-15T00:03:12;1.00;99.90
44509;DHT22;30214;52.246;14.408;2024-01-15T00:05:39;1.00;99.90
44509;DHT22;30214;52.246;14.408;2024-01-15T00:08:06;1.00;99.90
44509;DHT22;30214;52.246;14.408;2024-01-15T00:10:34;1.00;99.90
44509;DHT22;30214;52.246;14.408;2024-01-15T00:13:01;1.00;99.90
44509;DHT22;30214;52.246;14.408;2024-01-15T00:15:28;0.90;99.90
44509;DHT22;30214;52.246;14.408;2024-01-15T00:17:57;0.90;99.90
44509;DHT22;30214;52.246;14.408;2024-01-15T00:20:24;0.90;99.90
44509;DHT22;30214;52.246;14.408;2024-01-15T00:22:51;0.90;99.90
44509;DHT22;30214;52.246;14.408;2024-01-15T00:25:18;0.90;99.90
44509;DHT22;30214;52.246;14.408;2024-01-15T00:27:45;0.90;99.90
44509;DHT22;30214;52.246;14.408;2024-01-15T00:30:13;0.90;99.90
44509;DHT22;30214;52.246;14.408;2024-01-15T00:32:40;0.90;99.90
44509;DHT22;30214;52.246;14.408;2024-01-15T00:35:09;1.00;99.90
44509;DHT22;30214;52.246;14.408;2024-01-15T00:37:37;1.00;99.90
44509;DHT22;30214;52.246;14.408;2024-01-15T00:40:06;1.00;99.90
44509;DHT22;30214;52.246;14.408;2024-01-15T00:42:37;1.00;99.90
44509;DHT22;30214;52.246;14.408;2024-01-15T00:45:04;1.00;99.90
44509;DHT22;30214;52.246;14.408;2024-01-15T00:47:36;1.00;99.90
44509;DHT22;30214;52.246;14.408;2024-01-15T00:50:04;1.00;99.90
44509;DHT22;30214;52.246;14.408;2024-01-15T00:52:34;1.00;99.90
44509;DHT22;30214;52.246;14.408;2024-01-15T00:55:01;1.00;99.90
44509;DHT22;30214;52.246;14.408;2024-01-15T00:57:28;1.10;99.90
44509;DHT22;30214;52.246;14.408;2024-01-15T00:59:55;1.00;99.90
44509;DHT22;30214;52.246;14.408;2024-01-15T01:02:23;1.10;99.90
44509;DHT22;30214;52.246;14.408;2024-01-15T01:04:50;1.10;99.90
44509;DHT22;30214;52.246;14.408;2024-01-15T01:07:17;1.00;99.90
44509;DHT22;30214;52.246;14.408;2024-01-15T01:09:47;1.10;99.90
44509;DHT22;30214;52.246;14.408;2024-01-15T01:12:15;1.10;99.90
44509;DHT22;30214;52.246;14.408;2024-01-15T01:14:42;1.00;99.90
44509;DHT22;30214;52.246;14.408;2024-01-15T01:17:09;1.10;99.90
44509;DHT22;30214;52.246;14.408;2024-01-15T01:19:36;1.10;99.90
44509;DHT22;30214;52.246;14.408;2024-01-15T01:22:04;1.10;99.90
44509;DHT22;30214;52.246;14.408;2024-01-15T01:24:40;1.00;99.90
44509;DHT22;30214;52.246;14.408;2024-01-15T01:27:09;1.10;99.90
44509;DHT22;30214;52.246;14.408;2024-01-15T01:29:36;1.00;99.90
44509;DHT22;30214;52.246;14.408;2024-01-15T01:32:04;1.00;99.90
44509;DHT22;30214;52.246;14.408;2024-01-15T01:34:32;1.00;99.90
44509;DHT22;30214;52.246;14.408;2024-01-15T01:37:02;0.90;99.90
44509;DHT22;30214;52.246;14.408;2024-01-15T01:39:29;0.90;99.90
44509;DHT22;30214;52.246;14.408;2024-01-15T01:41:56;0.90;99.90
44509;DHT22;30214;52.246;14.408;2024-01-15T01:44:25;0.90;99.90
44509;DHT22;30214;52.246;14.408;2024-01-15T01:46:53;0.90;99.90
44509;DHT22;30214;52.246;14.408;2024-01-15T01:49:20;0.90;99.90
44509;DHT22;30214;52.246;14.408;2024-01-15T01:51:49;0.90;99.90
44509;DHT22;30214;52.246;14.408;2024-01-15T01:54:16;0.90;99.90
44509;DHT22;30214;52.246;14.408;2024-01-15T01:56:44;0.90;99.90
44509;DHT22;30214;52.246;14.408;2024-01-15T01:59:12;0.90;99.90
44509;DHT22;30214;52.246;14.408;2024-01-15T02:01:42;0.90;99.90
44509;DHT22;30214;52.246;14.408;2024-01-15T02:04:10;0.90;99.90
44509;DHT22;30214;52.246;14.408;2024-01-15T02:06:38;0.90;99.90
44509;DHT22;30214;52.246;14.408;2024-01-15T02:09:05;0.80;99.90
44509;DHT22;30214;52.246;14.408;2024-01-15T02:11:32;0.70;99.90
44509;DHT22;30214;52.246;14.408;2024-01-15T02:14:00;0.80;99.90
44509;DHT22;30214;52.246;14.408;2024-01-15T02:16:27;0.60;99.90
44509;DHT22;30214;52.246;14.408;2024-01-15T02:18:55;0.70;99.90
44509;DHT22;30214;52.246;14.408;2024-01-15T02:21:22;0.70;99.90
44509;DHT22;30214;52.246;14.408;2024-01-15T02:23:53;0.70;99.90
44509;DHT22;30214;52.246;14.408;2024-01-15T02:26:20;0.70;99.90
44509;DHT22;30214;52.246;14.408;2024-01-15T02:28:48;0.70;99.90
44509;DHT22;30214;52.246;14.408;2024-01-15T02:31:15;0.60;99.90
44509;DHT22;30214;52.246;14.408;2024-01-15T02:33:42;0.50;99.90
44509;DHT22;30214;52.246;14.408;2024-01-15T02:36:12;0.50;99.90
44509;DHT22;30214;52.246;14.408;2024-01-15T02:38:39;0.50;99.90
44509;DHT22;30214;52.246;14.408;2024-01-15T02:41:07;0.50;99.90
44509;DHT22;30214;52.246;14.408;2024-01-15T02:43:34;0.50;99.90
44509;DHT22;30214;52.246;14.408;2024-01-15T02:46:02;0.50;99.90
44509;DHT22;30214;52.246;14.408;2024-01-15T02:48:29;0.60;99.90
44509;DHT22;30214;52.246;14.408;2024-01-15T02:50:56;0.50;99.90
44509;DHT22;30214;52.246;14.408;2024-01-15T02:53:23;0.50;99.90
44509;DHT22;30214;52.246;14.408;2024-01-15T02:55:50;0.50;99.90
44509;DHT22;30214;52.246;14.408;2024-01-15T02:58:19;0.50;99.90
44509;DHT22;30214;52.246;14.408;2024-01-15T03:00:46;0.50;99.90
44509;DHT22;30214;52.246;14.408;2024-01-15T03:03:13;0.50;99.90
44509;DHT22;30214;52.246;14.408;2024-01-15T03:05:40;0.60;99.90
44509;DHT22;30214;52.246;14.408;2024-01-15T03:08:07;0.50;99.90
44509;DHT22;30214;52.246;14.408;2024-01-15T03:10:35;0.60;99.90
44509;DHT22;30214;52.246;14.408;2024-01-15T03:13:02;0.60;99.90
44509;DHT22;30214;52.246;14.408;2024-01-15T03:15:30;0.50;99.90
44509;DHT22;30214;52.246;14.408;2024-01-15T03:17:58;0.50;99.90
44509;DHT22;30214;52.246;14.408;2024-01-15T03:20:25;0.60;99.90
44509;DHT22;30214;52.246;14.408;2024-01-15T03:22:52;0.60;99.90
44509;DHT22;30214;52.246;14.408;2024-01-15T03:25:19;0.60;99.90
44509;DHT22;30214;52.246;14.408;2024-01-15T03:27:47;0.60;99.90
44509;DHT22;30214;52.246;14.408;2024-01-15T03:30:15;0.60;99.90
44509;DHT22;30214;52.246;14.408;2024-01-15T03:32:43;0.60;99.90
44509;DHT22;30214;52.246;14.408;2024-01-15T03:35:11;0.60;99.90
44509;DHT22;30214;52.246;14.408;2024-01-15T03:37:38;0.60;99.90
44509;DHT22;30214;52.246;14.408;2024-01-15T03:40:06;0.50;99.90
44509;DHT22;30214;52.246;14.408;2024-01-15T03:42:34;0.50;99.90
44509;DHT22;30214;52.246;14.408;2024-01-15T03:45:02;0.50;99.90
44509;DHT22;30214;52.246;14.408;2024-01-15T03:47:29;0.60;99.90
44509;DHT22;30214;52.246;14.408;2024-01-15T03:49:59;0.60;99.90
44509;DHT22;30214;52.246;14.408;2024-01-15T03:52:26;0.60;99.90
44509;DHT22;30214;52.246;14.408;2024-01-15T03:54:53;0.60;99.90
44509;DHT22;30214;52.246;14.408;2024-01-15T03:57:21;0.60;99.90
44509;DHT22;30214;52.246;14.408;2024-01-15T03:59:48;0.60;99.90
44509;DHT22;30214;52.246;14.408;2024-01-15T04:02:15;0.60;99.90
44509;DHT22;30214;52.246;14.408;2024-01-15T04:04:43;0.60;99.90
44509;DHT22;30214;52.246;14.408;2024-01-15T04:07:12;0.60;99.90
44509;DHT22;30214;52.246;14.408;2024-01-15T04:09:39;0.60;99.90
44509;DHT22;30214;52.246;14.408;2024-01-15T04:12:07;0.70;99.90
44509;DHT22;30214;52.246;14.408;2024-01-15T04:14:34;0.70;99.90
44509;DHT22;30214;52.246;14.408;2024-01-15T04:17:01;0.70;99.90
44509;DHT22;30214;52.246;14.408;2024-01-15T04:19:29;0.70;99.90
44509;DHT22;30214;52.246;14.408;2024-01-15T04:21:57;0.60;99.90
44509;DHT22;30214;52.246;14.408;2024-01-15T04:24:25;0.60;99.90
44509;DHT22;30214;52.246;14.408;2024-01-15T04:26:53;0.60;99.90
44509;DHT22;30214;52.246;14.408;2024-01-15T04:29:20;0.60;99.90
44509;DHT22;30214;52.246;14.408;2024-01-15T04:31:47;0.60;99.90
44509;DHT22;30214;52.246;14.408;2024-01-15T04:34:18;0.60;99.90
44509;DHT22;30214;52.246;14.408;2024-01-15T04:36:45;0.60;99.90
44509;DHT22;30214;52.246;14.408;2024-01-15T04:39:12;0.60;99.90
44509;DHT22;30214;52.246;14.408;2024-01-15T04:41:40;0.60;99.90
44509;DHT22;30214;52.246;14.408;2024-01-15T04:44:08;0.70;99.90
44509;DHT22;30214;52.246;14.408;2024-01-15T04:46:35;0.60;99.90
44509;DHT22;30214;52.246;14.408;2024-01-15T04:49:02;0.60;99.90
44509;DHT22;30214;52.246;14.408;2024-01-15T04:51:29;0.60;99.90
44509;DHT22;30214;52.246;14.408;2024-01-15T04:53:56;0.70;99.90
44509;DHT22;30214;52.246;14.408;2024-01-15T04:56:24;0.70;99.90
44509;DHT22;30214;52.246;14.408;2024-01-15T04:58:55;0.70;99.90
44509;DHT22;30214;52.246;14.408;2024-01-15T05:01:22;0.70;99.90
44509;DHT22;30214;52.246;14.408;2024-01-15T05:03:50;0.80;99.90
44509;DHT22;30214;52.246;14.408;2024-01-15T05:06:17;0.80;99.90
44509;DHT22;30214;52.246;14.408;2024-01-15T05:08:44;0.80;99.90
44509;DHT22;30214;52.246;14.408;2024-01-15T05:11:14;0.70;99.90
44509;DHT22;30214;52.246;14.408;2024-01-15T05:13:41;0.70;99.90
44509;DHT22;30214;52.246;14.408;2024-01-15T05:16:09;0.70;99.90
44509;DHT22;30214;52.246;14.408;2024-01-15T05:18:36;0.70;99.90
44509;DHT22;30214;52.246;14.408;2024-01-15T05:21:04;0.70;99.90
44509;DHT22;30214;52.246;14.408;2024-01-15T05:23:31;0.70;99.90
44509;DHT22;30214;52.246;14.408;2024-01-15T05:25:58;0.70;99.90
44509;DHT22;30214;52.246;14.408;2024-01-15T05:28:26;0.70;99.90
44509;DHT22;30214;52.246;14.408;2024-01-15T05:30:53;0.70;99.90
44509;DHT22;30214;52.246;14.408;2024-01-15T05:33:22;0.70;99.90
44509;DHT22;30214;52.246;14.408;2024-01-15T05:35:49;0.80;99.90
44509;DHT22;30214;52.246;14.408;2024-01-15T05:38:17;0.80;99.90
44509;DHT22;30214;52.246;14.408;2024-01-15T05:40:44;0.70;99.90
44509;DHT22;30214;52.246;14.408;2024-01-15T05:43:11;0.80;99.90
44509;DHT22;30214;52.246;14.408;2024-01-15T05:45:38;0.80;99.90
44509;DHT22;30214;52.246;14.408;2024-01-15T05:48:09;0.80;99.90
44509;DHT22;30214;52.246;14.408;2024-01-15T05:50:38;0.80;99.90
44509;DHT22;30214;52.246;14.408;2024-01-15T05:53:05;0.80;99.90
44509;DHT22;30214;52.246;14.408;2024-01-15T05:55:32;0.90;99.90
44509;DHT22;30214;52.246;14.408;2024-01-15T05:57:59;0.90;99.90
44509;DHT22;30214;52.246;14.408;2024-01-15T06:00:27;0.90;99.90
44509;DHT22;30214;52.246;14.408;2024-01-15T06:02:54;0.90;99.90
44509;DHT22;30214;52.246;14.408;2024-01-15T06:05:21;0.90;99.90
44509;DHT22;30214;52.246;14.408;2024-01-15T06:07:50;0.90;99.90
44509;DHT22;30214;52.246;14.408;2024-01-15T06:10:17;0.80;99.90
44509;DHT22;30214;52.246;14.408;2024-01-15T06:12:44;0.80;99.90
44509;DHT22;30214;52.246;14.408;2024-01-15T06:15:11;0.80;99.90
44509;DHT22;30214;52.246;14.408;2024-01-15T06:17:41;0.80;99.90
44509;DHT22;30214;52.246;14.408;2024-01-15T06:20:09;0.80;99.90
44509;DHT22;30214;52.246;14.408;2024-01-15T06:22:37;0.80;99.90
44509;DHT22;30214;52.246;14.408;2024-01-15T06:25:08;0.80;99.90
44509;DHT22;30214;52.246;14.408;2024-01-15T06:27:35;0.80;99.90
44509;DHT22;30214;52.246;14.408;2024-01-15T06:30:03;0.80;99.90
44509;DHT22;30214;52.246;14.408;2024-01-15T06:32:31;0.80;99.90
44509;DHT22;30214;52.246;14.408;2024-01-15T06:34:58;0.80;99.90
44509;DHT22;30214;52.246;14.408;2024-01-15T06:37:26;0.80;99.90
44509;DHT22;30214;52.246;14.408;2024-01-15T06:39:53;0.80;99.90
44509;DHT22;30214;52.246;14.408;2024-01-15T06:42:22;0.80;99.90
44509;DHT22;30214;52.246;14.408;2024-01-15T06:44:49;0.80;99.90
44509;DHT22;30214;52.246;14.408;2024-01-15T06:47:16;0.90;99.90
44509;DHT22;30214;52.246;14.408;2024-01-15T06:49:44;0.90;99.90
44509;DHT22;30214;52.246;14.408;2024-01-15T06:52:11;0.90;99.90
44509;DHT22;30214;52.246;14.408;2024-01-15T06:54:39;0.80;99.90
44509;DHT22;30214;52.246;14.408;2024-01-15T06:57:06;0.70;99.90
44509;DHT22;30214;52.246;14.408;2024-01-15T06:59:35;0.70;99.90
44509;DHT22;30214;52.246;14.408;2024-01-15T07:02:02;0.60;99.90
44509;DHT22;30214;52.246;14.408;2024-01-15T07:04:29;0.60;99.90
44509;DHT22;30214;52.246;14.408;2024-01-15T07:06:57;0.60;99.90
44509;DHT22;30214;52.246;14.408;2024-01-15T07:09:24;0.60;99.90
44509;DHT22;30214;52.246;14.408;2024-01-15T07:11:51;0.60;99.90
44509;DHT22;30214;52.246;14.408;2024-01-15T07:14:18;0.60;99.90
44509;DHT22;30214;52.246;14.408;2024-01-15T07:16:46;0.60;99.90
44509;DHT22;30214;52.246;14.408;2024-01-15T07:19:13;0.60;99.90
44509;DHT22;30214;52.246;14.408;2024-01-15T07:21:40;0.60;99.90
44509;DHT22;30214;52.246;14.408;2024-01-15T07:24:08;0.60;99.90
44509;DHT22;30214;52.246;14.408;2024-01-15T07:26:36;0.60;99.90
44509;DHT22;30214;52.246;14.408;2024-01-15T07:29:03;0.60;99.90
44509;DHT22;30214;52.246;14.408;2024-01-15T07:31:31;0.60;99.90
44509;DHT22;30214;52.246;14.408;2024-01-15T07:34:00;0.60;99.90
44509;DHT22;30214;52.246;14.408;2024-01-15T07:36:30;0.60;99.90
44509;DHT22;30214;52.246;14.408;2024-01-15T07:38:58;0.70;99.90
44509;DHT22;30214;52.246;14.408;2024-01-15T07:41:25;0.70;99.90
44509;DHT22;30214;52.246;14.408;2024-01-15T07:43:52;0.70;99.90
44509;DHT22;30214;52.246;14.408;2024-01-15T07:46:19;0.70;99.90
44509;DHT22;30214;52.246;14.408;2024-01-15T07:48:46;0.70;99.90
44509;DHT22;30214;52.246;14.408;2024-01-15T07:51:15;0.80;99.90
44509;DHT22;30214;52.246;14.408;2024-01-15T07:53:42;0.80;99.90
44509;DHT22;30214;52.246;14.408;2024-01-15T07:56:09;0.80;99.90
44509;DHT22;30214;52.246;14.408;2024-01-15T07:58:37;0.80;99.90
44509;DHT22;30214;52.246;14.408;2024-01-15T08:01:05;0.80;99.90
44509;DHT22;30214;52.246;14.408;2024-01-15T08:03:33;0.80;99.90
44509;DHT22;30214;52.246;14.408;2024-01-15T08:06:00;0.90;99.90
44509;DHT22;30214;52.246;14.408;2024-01-15T08:08:29;0.90;99.90
44509;DHT22;30214;52.246;14.408;2024-01-15T08:10:56;0.90;99.90
44509;DHT22;30214;52.246;14.408;2024-01-15T08:13:26;0.90;99.90
44509;DHT22;30214;52.246;14.408;2024-01-15T08:15:54;0.90;99.90
44509;DHT22;30214;52.246;14.408;2024-01-15T08:18:21;1.00;99.90
44509;DHT22;30214;52.246;14.408;2024-01-15T08:20:48;1.00;99.90
44509;DHT22;30214;52.246;14.408;2024-01-15T08:23:17;1.00;99.90
44509;DHT22;30214;52.246;14.408;2024-01-15T08:25:46;1.10;99.90
44509;DHT22;30214;52.246;14.408;2024-01-15T08:28:13;1.10;99.90
44509;DHT22;30214;52.246;14.408;2024-01-15T08:30:40;1.00;99.90
44509;DHT22;30214;52.246;14.408;2024-01-15T08:33:08;1.00;99.90
44509;DHT22;30214;52.246;14.408;2024-01-15T08:35:35;1.10;99.90
44509;DHT22;30214;52.246;14.408;2024-01-15T08:38:03;1.10;99.90
44509;DHT22;30214;52.246;14.408;2024-01-15T08:40:30;1.10;99.90
44509;DHT22;30214;52.246;14.408;2024-01-15T08:42:59;1.20;99.90
44509;DHT22;30214;52.246;14.408;2024-01-15T08:45:27;1.20;99.90
44509;DHT22;30214;52.246;14.408;2024-01-15T08:47:54;1.30;99.90
44509;DHT22;30214;52.246;14.408;2024-01-15T08:50:21;1.30;99.90
44509;DHT22;30214;52.246;14.408;2024-01-15T08:52:49;1.40;99.90
44509;DHT22;30214;52.246;14.408;2024-01-15T08:55:16;1.30;99.90
44509;DHT22;30214;52.246;14.408;2024-01-15T08:57:43;1.30;99.90
44509;DHT22;30214;52.246;14.408;2024-01-15T09:00:13;1.30;99.90
44509;DHT22;30214;52.246;14.408;2024-01-15T09:02:42;1.40;99.90
44509;DHT22;30214;52.246;14.408;2024-01-15T09:05:09;1.40;99.90
44509;DHT22;30214;52.246;14.408;2024-01-15T09:07:36;1.50;99.90
44509;DHT22;30214;52.246;14.408;2024-01-15T09:10:04;1.50;99.90
44509;DHT22;30214;52.246;14.408;2024-01-15T09:12:32;1.50;99.90
44509;DHT22;30214;52.246;14.408;2024-01-15T09:14:59;1.50;99.90
44509;DHT22;30214;52.246;14.408;2024-01-15T09:17:31;1.60;99.90
44509;DHT22;30214;52.246;14.408;2024-01-15T09:19:59;1.50;99.90
44509;DHT22;30214;52.246;14.408;2024-01-15T09:22:27;1.50;99.90
44509;DHT22;30214;52.246;14.408;2024-01-15T09:24:54;1.60;99.90
44509;DHT22;30214;52.246;14.408;2024-01-15T09:27:22;1.60;99.90
44509;DHT22;30214;52.246;14.408;2024-01-15T09:29:51;1.60;99.90
44509;DHT22;30214;52.246;14.408;2024-01-15T09:32:18;1.70;99.90
44509;DHT22;30214;52.246;14.408;2024-01-15T09:34:47;1.70;99.90
44509;DHT22;30214;52.246;14.408;2024-01-15T09:37:14;1.70;99.90
44509;DHT22;30214;52.246;14.408;2024-01-15T09:39:41;1.80;99.90
44509;DHT22;30214;52.246;14.408;2024-01-15T09:42:10;1.90;99.90
44509;DHT22;30214;52.246;14.408;2024-01-15T09:44:39;2.00;99.90
44509;DHT22;30214;52.246;14.408;2024-01-15T09:47:07;2.00;99.90
44509;DHT22;30214;52.246;14.408;2024-01-15T09:49:36;2.00;99.90
44509;DHT22;30214;52.246;14.408;2024-01-15T09:52:07;2.00;99.90
44509;DHT22;30214;52.246;14.408;2024-01-15T09:54:35;2.00;99.90
44509;DHT22;30214;52.246;14.408;2024-01-15T09:57:03;2.00;99.90
44509;DHT22;30214;52.246;14.408;2024-01-15T09:59:32;2.10;99.90
44509;DHT22;30214;52.246;14.408;2024-01-15T10:02:03;2.10;99.90
44509;DHT22;30214;52.246;14.408;2024-01-15T10:04:32;2.00;99.90
44509;DHT22;30214;52.246;14.408;2024-01-15T10:07:01;1.90;99.90
44509;DHT22;30214;52.246;14.408;2024-01-15T10:09:33;1.80;99.90
44509;DHT22;30214;52.246;14.408;2024-01-15T10:12:00;1.80;99.90
44509;DHT22;30214;52.246;14.408;2024-01-15T10:14:28;1.80;99.90
44509;DHT22;30214;52.246;14.408;2024-01-15T10:16:55;1.70;99.90
44509;DHT22;30214;52.246;14.408;2024-01-15T10:19:23;1.70;99.90
44509;DHT22;30214;52.246;14.408;2024-01-15T10:21:50;1.70;99.90
44509;DHT22;30214;52.246;14.408;2024-01-15T10:24:19;1.70;99.90
44509;DHT22;30214;52.246;14.408;2024-01-15T10:26:48;1.70;99.90
44509;DHT22;30214;52.246;14.408;2024-01-15T10:29:16;1.70;99.90
44509;DHT22;30214;52.246;14.408;2024-01-15T10:31:44;1.70;99.90
44509;DHT22;30214;52.246;14.408;2024-01-15T10:34:11;1.80;99.90
44509;DHT22;30214;52.246;14.408;2024-01-15T10:36:41;1.90;99.90
44509;DHT22;30214;52.246;14.408;2024-01-15T10:39:08;1.90;99.90
44509;DHT22;30214;52.246;14.408;2024-01-15T10:41:36;1.90;99.90
44509;DHT22;30214;52.246;14.408;2024-01-15T10:44:04;1.90;99.90
44509;DHT22;30214;52.246;14.408;2024-01-15T10:46:32;1.80;99.90
44509;DHT22;30214;52.246;14.408;2024-01-15T10:49:04;1.80;99.90
44509;DHT22;30214;52.246;14.408;2024-01-15T10:51:31;1.60;99.90
44509;DHT22;30214;52.246;14.408;2024-01-15T10:54:03;1.50;99.90
44509;DHT22;30214;52.246;14.408;2024-01-15T10:56:31;1.40;99.90
44509;DHT22;30214;52.246;14.408;2024-01-15T10:59:02;1.40;99.90
44509;DHT22;30214;52.246;14.408;2024-01-15T11:01:31;1.30;99.90
44509;DHT22;30214;52.246;14.408;2024-01-15T11:04:03;1.30;99.90
44509;DHT22;30214;52.246;14.408;2024-01-15T11:06:43;1.20;99.90
44509;DHT22;30214;52.246;14.408;2024-01-15T11:09:12;1.20;99.90
44509;DHT22;30214;52.246;14.408;2024-01-15T11:11:41;1.30;99.90
44509;DHT22;30214;52.246;14.408;2024-01-15T11:14:11;1.40;99.90
44509;DHT22;30214;52.246;14.408;2024-01-15T11:16:54;1.40;99.90
44509;DHT22;30214;52.246;14.408;2024-01-15T11:19:22;1.40;99.90
44509;DHT22;30214;52.246;14.408;2024-01-15T11:21:50;1.50;99.90
44509;DHT22;30214;52.246;14.408;2024-01-15T11:24:36;1.50;99.90
44509;DHT22;30214;52.246;14.408;2024-01-15T11:27:05;1.60;99.90
44509;DHT22;30214;52.246;14.408;2024-01-15T11:29:35;1.60;99.90
44509;DHT22;30214;52.246;14.408;2024-01-15T11:32:05;1.70;99.90
44509;DHT22;30214;52.246;14.408;2024-01-15T11:34:53;1.70;99.90
44509;DHT22;30214;52.246;14.408;2024-01-15T11:37:28;1.70;99.90
44509;DHT22;30214;52.246;14.408;2024-01-15T11:40:03;1.70;99.90
44509;DHT22;30214;52.246;14.408;2024-01-15T11:42:31;1.80;99.90
44509;DHT22;30214;52.246;14.408;2024-01-15T11:45:00;1.80;99.90
44509;DHT22;30214;52.246;14.408;2024-01-15T11:48:07;1.80;99.90
44509;DHT22;30214;52.246;14.408;2024-01-15T11:50:40;1.80;99.90
44509;DHT22;30214;52.246;14.408;2024-01-15T11:53:16;1.80;99.90
44509;DHT22;30214;52.246;14.408;2024-01-15T11:55:45;2.00;99.90
44509;DHT22;30214;52.246;14.408;2024-01-15T11:58:14;2.00;99.90
44509;DHT22;30214;52.246;14.408;2024-01-15T12:00:45;2.10;99.90
44509;DHT22;30214;52.246;14.408;2024-01-15T12:03:15;2.20;99.90
44509;DHT22;30214;52.246;14.408;2024-01-15T12:05:42;2.20;99.90
44509;DHT22;30214;52.246;14.408;2024-01-15T12:08:09;2.30;99.90
44509;DHT22;30214;52.246;14.408;2024-01-15T12:10:37;2.30;99.90
44509;DHT22;30214;52.246;14.408;2024-01-15T12:13:10;2.20;99.90
44509;DHT22;30214;52.246;14.408;2024-01-15T12:15:40;2.20;99.90
44509;DHT22;30214;52.246;14.408;2024-01-15T12:18:11;2.10;99.90
44509;DHT22;30214;52.246;14.408;2024-01-15T12:20:40;2.10;99.90
44509;DHT22;30214;52.246;14.408;2024-01-15T12:23:08;2.10;99.90
44509;DHT22;30214;52.246;14.408;2024-01-15T12:25:36;2.20;99.90
44509;DHT22;30214;52.246;14.408;2024-01-15T12:28:04;2.30;99.90
44509;DHT22;30214;52.246;14.408;2024-01-15T12:30:34;2.30;99.90
44509;DHT22;30214;52.246;14.408;2024-01-15T12:33:03;2.30;99.90
44509;DHT22;30214;52.246;14.408;2024-01-15T12:35:34;2.20;99.90
44509;DHT22;30214;52.246;14.408;2024-01-15T12:38:02;2.20;99.90
44509;DHT22;30214;52.246;14.408;2024-01-15T12:40:31;2.10;99.90
44509;DHT22;30214;52.246;14.408;2024-01-15T12:43:00;2.10;99.90
44509;DHT22;30214;52.246;14.408;2024-01-15T12:45:30;2.10;99.90
44509;DHT22;30214;52.246;14.408;2024-01-15T12:47:58;2.10;99.90
44509;DHT22;30214;52.246;14.408;2024-01-15T12:50:26;2.10;99.90
44509;DHT22;30214;52.246;14.408;2024-01-15T12:52:55;2.10;99.90
44509;DHT22;30214;52.246;14.408;2024-01-15T12:55:22;2.10;99.90
44509;DHT22;30214;52.246;14.408;2024-01-15T12:57:49;2.00;99.90
44509;DHT22;30214;52.246;14.408;2024-01-15T13:00:20;2.00;99.90
44509;DHT22;30214;52.246;14.408;2024-01-15T13:02:47;1.90;99.90
44509;DHT22;30214;52.246;14.408;2024-01-15T13:05:16;1.90;99.90
44509;DHT22;30214;52.246;14.408;2024-01-15T13:07:44;1.80;99.90
44509;DHT22;30214;52.246;14.408;2024-01-15T13:10:12;1.80;99.90
44509;DHT22;30214;52.246;14.408;2024-01-15T13:12:40;1.90;99.90
44509;DHT22;30214;52.246;14.408;2024-01-15T13:15:08;1.90;99.90
44509;DHT22;30214;52.246;14.408;2024-01-15T13:17:37;1.90;99.90
44509;DHT22;30214;52.246;14.408;2024-01-15T13:20:06;1.90;99.90
44509;DHT22;30214;52.246;14.408;2024-01-15T13:22:36;1.90;99.90
44509;DHT22;30214;52.246;14.408;2024-01-15T13:25:06;2.00;99.90
44509;DHT22;30214;52.246;14.408;2024-01-15T13:27:35;2.00;99.90
44509;DHT22;30214;52.246;14.408;2024-01-15T13:30:04;2.00;99.90
44509;DHT22;30214;52.246;14.408;2024-01-15T13:32:33;2.10;99.90
44509;DHT22;30214;52.246;14.408;2024-01-15T13:35:03;2.10;99.90
44509;DHT22;30214;52.246;14.408;2024-01-15T13:37:35;2.10;99.90
44509;DHT22;30214;52.246;14.408;2024-01-15T13:40:04;2.00;99.90
44509;DHT22;30214;52.246;14.408;2024-01-15T13:42:35;2.00;99.90
44509;DHT22;30214;52.246;14.408;2024-01-15T13:45:04;2.00;99.90
44509;DHT22;30214;52.246;14.408;2024-01-15T13:47:33;2.00;99.90
44509;DHT22;30214;52.246;14.408;2024-01-15T13:50:00;2.00;99.90
44509;DHT22;30214;52.246;14.408;2024-01-15T13:52:28;2.00;99.90
44509;DHT22;30214;52.246;14.408;2024-01-15T13:54:56;2.00;99.90
44509;DHT22;30214;52.246;14.408;2024-01-15T13:57:23;2.00;99.90
44509;DHT22;30214;52.246;14.408;2024-01-15T13:59:52;2.00;99.90
44509;DHT22;30214;52.246;14.408;2024-01-15T14:02:20;1.90;99.90
44509;DHT22;30214;52.246;14.408;2024-01-15T14:04:47;1.90;99.90
44509;DHT22;30214;52.246;14.408;2024-01-15T14:07:15;1.90;99.90
44509;DHT22;30214;52.246;14.408;2024-01-15T14:09:42;2.00;99.90
44509;DHT22;30214;52.246;14.408;2024-01-15T14:12:09;1.90;99.90
44509;DHT22;30214;52.246;14.408;2024-01-15T14:14:37;1.80;99.90
44509;DHT22;30214;52.246;14.408;2024-01-15T14:17:07;1.80;99.90
44509;DHT22;30214;52.246;14.408;2024-01-15T14:19:35;1.80;99.90
44509;DHT22;30214;52.246;14.408;2024-01-15T14:22:03;1.80;99.90
44509;DHT22;30214;52.246;14.408;2024-01-15T14:24:30;1.80;99.90
44509;DHT22;30214;52.246;14.408;2024-01-15T14:26:57;1.90;99.90
44509;DHT22;30214;52.246;14.408;2024-01-15T14:29:25;1.90;99.90
44509;DHT22;30214;52.246;14.408;2024-01-15T14:31:52;2.00;99.90
44509;DHT22;30214;52.246;14.408;2024-01-15T14:34:21;1.90;99.90
44509;DHT22;30214;52.246;14.408;2024-01-15T14:36:49;1.90;99.90
44509;DHT22;30214;52.246;14.408;2024-01-15T14:39:19;1.90;99.90
44509;DHT22;30214;52.246;14.408;2024-01-15T14:41:49;1.90;99.90
44509;DHT22;30214;52.246;14.408;2024-01-15T14:44:17;2.00;99.90
44509;DHT22;30214;52.246;14.408;2024-01-15T14:46:44;2.00;99.90
44509;DHT22;30214;52.246;14.408;2024-01-15T14:49:12;1.90;99.90
44509;DHT22;30214;52.246;14.408;2024-01-15T14:51:41;1.80;99.90
44509;DHT22;30214;52.246;14.408;2024-01-15T14:54:09;1.70;99.90
44509;DHT22;30214;52.246;14.408;2024-01-15T14:56:37;1.70;99.90
44509;DHT22;30214;52.246;14.408;2024-01-15T14:59:04;1.70;99.90
44509;DHT22;30214;52.246;14.408;2024-01-15T15:01:31;1.60;99.90
44509;DHT22;30214;52.246;14.408;2024-01-15T15:03:59;1.60;99.90
44509;DHT22;30214;52.246;14.408;2024-01-15T15:06:29;1.70;99.90
44509;DHT22;30214;52.246;14.408;2024-01-15T15:08:59;1.80;99.90
44509;DHT22;30214;52.246;14.408;2024-01-15T15:11:26;1.80;99.90
44509;DHT22;30214;52.246;14.408;2024-01-15T15:13:53;1.80;99.90
44509;DHT22;30214;52.246;14.408;2024-01-15T15:16:21;1.70;99.90
44509;DHT22;30214;52.246;14.408;2024-01-15T15:18:48;1.70;99.90
44509;DHT22;30214;52.246;14.408;2024-01-15T15:21:15;1.70;99.90
44509;DHT22;30214;52.246;14.408;2024-01-15T15:23:42;1.60;99.90
44509;DHT22;30214;52.246;14.408;2024-01-15T15:26:11;1.60;99.90
44509;DHT22;30214;52.246;14.408;2024-01-15T15:28:38;1.60;99.90
44509;DHT22;30214;52.246;14.408;2024-01-15T15:31:06;1.60;99.90
44509;DHT22;30214;52.246;14.408;2024-01-15T15:33:34;1.60;99.90
44509;DHT22;30214;52.246;14.408;2024-01-15T15:36:05;1.60;99.90